createdAt,value
2023-02-27T00:01:34.919Z,3.50
2023-02-27T00:04:01.538Z,4.40
2023-02-27T00:06:28.723Z,4.28
2023-02-27T00:08:55.128Z,4.05
2023-02-27T00:11:21.914Z,3.28
2023-02-27T00:13:48.271Z,3.40
2023-02-27T00:16:14.833Z,3.20
2023-02-27T00:18:41.255Z,3.65
2023-02-27T00:21:07.652Z,3.40
2023-02-27T00:23:34.025Z,3.08
2023-02-27T00:26:00.994Z,3.30
2023-02-27T00:28:28.148Z,3.10
2023-02-27T00:30:54.676Z,2.90
2023-02-27T00:33:21.164Z,3.88
2023-02-27T00:35:57.622Z,3.13
2023-02-27T00:38:24.364Z,3.45
2023-02-27T00:40:50.793Z,3.25
2023-02-27T00:43:17.202Z,3.63
2023-02-27T00:45:43.617Z,2.97
2023-02-27T00:48:10.124Z,3.55
2023-02-27T00:50:36.780Z,3.40
2023-02-27T00:53:03.256Z,3.40
2023-02-27T00:55:29.684Z,3.00
2023-02-27T00:57:56.168Z,3.13
2023-02-27T01:00:22.628Z,3.65
2023-02-27T01:02:49.093Z,3.53
2023-02-27T01:05:15.822Z,3.08
2023-02-27T01:07:42.348Z,3.35
2023-02-27T01:10:10.241Z,3.30
2023-02-27T01:12:36.618Z,3.85
2023-02-27T01:15:04.018Z,3.50
2023-02-27T01:17:30.415Z,3.85
2023-02-27T01:19:56.792Z,3.63
2023-02-27T01:22:23.191Z,3.47
2023-02-27T01:24:49.586Z,3.45
2023-02-27T01:27:16.170Z,3.95
2023-02-27T01:29:42.648Z,3.30
2023-02-27T01:32:09.258Z,3.13
2023-02-27T01:34:35.781Z,3.40
2023-02-27T01:37:02.754Z,3.70
2023-02-27T01:39:29.372Z,3.35
2023-02-27T01:41:55.994Z,3.55
2023-02-27T01:44:22.371Z,3.60
2023-02-27T01:46:48.725Z,3.53
2023-02-27T01:49:21.282Z,3.10
2023-02-27T01:51:55.022Z,3.70
2023-02-27T01:54:23.219Z,3.55
2023-02-27T01:56:50.426Z,3.42
2023-02-27T01:59:17.244Z,3.60
2023-02-27T02:01:44.053Z,3.90
2023-02-27T02:04:22.531Z,4.00
2023-02-27T02:06:51.581Z,4.30
2023-02-27T02:09:18.877Z,3.88
2023-02-27T02:11:45.270Z,3.80
2023-02-27T02:14:12.461Z,3.53
2023-02-27T02:17:00.196Z,4.10
2023-02-27T02:19:53.372Z,3.88
2023-02-27T02:22:37.337Z,3.90
2023-02-27T02:25:22.053Z,3.72
2023-02-27T02:27:59.754Z,3.42
2023-02-27T02:31:01.542Z,3.80
2023-02-27T02:33:36.165Z,3.78
2023-02-27T02:36:22.802Z,4.03
2023-02-27T02:38:56.371Z,3.90
2023-02-27T02:42:00.350Z,3.75
2023-02-27T02:44:58.249Z,4.63
2023-02-27T02:47:33.177Z,4.40
2023-02-27T02:50:11.157Z,4.30
2023-02-27T02:53:01.400Z,4.05
2023-02-27T02:55:44.656Z,4.18
2023-02-27T02:58:22.154Z,4.10
2023-02-27T03:00:56.900Z,4.68
2023-02-27T03:03:29.320Z,4.72
2023-02-27T03:08:49.533Z,4.35
2023-02-27T03:11:15.990Z,4.50
2023-02-27T03:13:48.998Z,4.30
2023-02-27T03:16:25.490Z,4.85
2023-02-27T03:19:11.688Z,4.32
2023-02-27T03:21:44.842Z,4.22
2023-02-27T03:24:16.985Z,4.05
2023-02-27T03:26:44.784Z,3.80
2023-02-27T03:29:16.017Z,4.03
2023-02-27T03:31:47.103Z,4.35
2023-02-27T03:34:19.160Z,3.97
2023-02-27T03:36:49.899Z,4.15
2023-02-27T03:39:23.829Z,4.13
2023-02-27T03:41:55.376Z,3.90
2023-02-27T03:44:52.317Z,4.40
2023-02-27T03:47:19.365Z,3.97
2023-02-27T03:49:45.832Z,3.90
2023-02-27T03:52:12.672Z,4.32
2023-02-27T03:54:51.676Z,4.50
2023-02-27T03:57:18.041Z,4.78
2023-02-27T03:59:44.768Z,4.25
2023-02-27T04:02:11.467Z,4.38
2023-02-27T04:04:38.614Z,4.45
2023-02-27T04:07:29.810Z,4.28
2023-02-27T04:10:16.889Z,4.00
2023-02-27T04:12:46.253Z,4.38
2023-02-27T04:15:54.668Z,3.90
2023-02-27T04:18:35.982Z,4.38
2023-02-27T04:21:08.442Z,4.47
2023-02-27T04:26:39.530Z,4.35
2023-02-27T04:29:17.075Z,4.77
2023-02-27T04:31:56.254Z,4.15
2023-02-27T04:34:29.360Z,4.57
2023-02-27T04:37:01.357Z,4.10
2023-02-27T04:39:32.153Z,4.43
2023-02-27T04:42:05.273Z,4.47
2023-02-27T04:44:33.787Z,4.07
2023-02-27T04:47:00.944Z,4.45
2023-02-27T04:49:36.560Z,4.43
2023-02-27T04:52:07.287Z,4.05
2023-02-27T04:54:46.717Z,4.53
2023-02-27T04:57:18.429Z,4.50
2023-02-27T04:59:48.952Z,4.68
2023-02-27T05:02:25.456Z,4.55
2023-02-27T05:04:55.700Z,4.38
2023-02-27T05:07:25.931Z,4.60
2023-02-27T05:09:55.755Z,4.50
2023-02-27T05:12:51.618Z,4.68
2023-02-27T05:15:24.638Z,4.75
2023-02-27T05:18:00.290Z,5.05
2023-02-27T05:20:33.513Z,5.32
2023-02-27T05:23:11.036Z,5.43
2023-02-27T05:25:43.361Z,6.18
2023-02-27T05:28:34.988Z,6.30
2023-02-27T05:31:07.313Z,7.15
2023-02-27T05:33:39.089Z,7.10
2023-02-27T05:36:07.862Z,7.40
2023-02-27T05:38:40.769Z,7.78
2023-02-27T05:41:12.922Z,7.80
2023-02-27T05:43:48.188Z,7.03
2023-02-27T05:46:19.960Z,7.95
2023-02-27T05:48:51.837Z,5.90
2023-02-27T05:51:19.677Z,8.15
2023-02-27T05:53:55.542Z,7.20
2023-02-27T05:56:23.605Z,7.18
2023-02-27T05:59:05.018Z,6.57
2023-02-27T06:01:32.061Z,6.53
2023-02-27T06:03:58.659Z,6.22
2023-02-27T06:06:25.336Z,5.65
2023-02-27T06:08:51.913Z,5.63
2023-02-27T06:11:18.347Z,5.35
2023-02-27T06:13:44.737Z,5.50
2023-02-27T06:16:13.202Z,5.63
2023-02-27T06:18:39.644Z,5.57
2023-02-27T06:21:06.576Z,5.50
2023-02-27T06:23:33.031Z,6.53
2023-02-27T06:25:59.447Z,5.53
2023-02-27T06:28:25.887Z,6.13
2023-02-27T06:30:57.065Z,6.28
2023-02-27T06:33:25.916Z,6.70
2023-02-27T06:35:52.676Z,6.22
2023-02-27T06:38:19.099Z,6.63
2023-02-27T06:40:45.516Z,7.28
2023-02-27T06:43:11.922Z,6.25
2023-02-27T06:45:38.940Z,6.80
2023-02-27T06:48:05.635Z,6.65
2023-02-27T06:50:32.045Z,6.43
2023-02-27T06:52:58.421Z,7.20
2023-02-27T06:55:25.698Z,7.55
2023-02-27T06:57:52.225Z,7.40
2023-02-27T07:00:19.025Z,8.18
2023-02-27T07:02:45.461Z,8.38
2023-02-27T07:05:12.143Z,7.80
2023-02-27T07:07:39.242Z,7.97
2023-02-27T07:10:08.426Z,7.40
2023-02-27T07:12:34.812Z,6.47
2023-02-27T07:15:01.235Z,7.15
2023-02-27T07:17:27.641Z,7.18
2023-02-27T07:19:54.537Z,6.93
2023-02-27T07:22:21.002Z,7.05
2023-02-27T07:24:47.368Z,7.03
2023-02-27T07:27:13.832Z,7.30
2023-02-27T07:29:40.237Z,7.07
2023-02-27T07:32:06.762Z,7.07
2023-02-27T07:34:33.157Z,7.65
2023-02-27T07:36:59.539Z,7.20
2023-02-27T07:39:25.965Z,8.32
2023-02-27T07:41:52.413Z,8.02
2023-02-27T07:44:18.970Z,7.72
2023-02-27T07:46:47.270Z,8.75
2023-02-27T07:49:14.035Z,8.30
2023-02-27T07:51:40.836Z,8.82
2023-02-27T07:54:07.207Z,8.63
2023-02-27T07:56:34.321Z,8.60
2023-02-27T07:59:00.794Z,7.80
2023-02-27T08:01:27.222Z,7.97
2023-02-27T08:03:53.688Z,7.63
2023-02-27T08:06:20.061Z,7.85
2023-02-27T08:08:46.443Z,7.32
2023-02-27T08:11:12.876Z,7.38
2023-02-27T08:16:25.919Z,6.82
2023-02-27T08:18:52.790Z,6.65
2023-02-27T08:21:19.213Z,6.70
2023-02-27T08:23:45.583Z,5.95
2023-02-27T08:26:11.962Z,6.85
2023-02-27T08:28:38.375Z,5.88
2023-02-27T08:31:05.012Z,5.53
2023-02-27T08:33:31.487Z,5.43
2023-02-27T08:35:57.888Z,5.47
2023-02-27T08:38:26.311Z,5.82
2023-02-27T08:40:55.672Z,5.25
2023-02-27T08:43:22.643Z,5.20
2023-02-27T08:45:49.967Z,5.47
2023-02-27T08:48:17.696Z,5.03
2023-02-27T08:50:44.761Z,4.80
2023-02-27T08:53:11.734Z,4.82
2023-02-27T08:55:38.288Z,4.95
2023-02-27T08:58:04.860Z,4.50
2023-02-27T09:00:32.388Z,5.07
2023-02-27T09:02:59.942Z,4.50
2023-02-27T09:05:26.631Z,4.88
2023-02-27T09:07:53.040Z,4.80
2023-02-27T09:10:19.562Z,5.18
2023-02-27T09:12:46.012Z,5.13
2023-02-27T09:15:12.603Z,4.88
2023-02-27T09:17:39.052Z,4.40
2023-02-27T09:20:09.116Z,4.53
2023-02-27T09:22:35.528Z,4.85
2023-02-27T09:25:01.942Z,4.68
2023-02-27T09:27:28.488Z,4.90
2023-02-27T09:29:56.326Z,4.70
2023-02-27T09:32:23.469Z,4.75
2023-02-27T09:34:50.108Z,4.97
2023-02-27T09:37:17.212Z,4.68
2023-02-27T09:39:44.674Z,4.45
2023-02-27T09:42:17.123Z,4.05
2023-02-27T09:44:51.682Z,4.30
2023-02-27T09:47:23.860Z,4.03
2023-02-27T09:49:59.996Z,4.00
2023-02-27T09:52:27.994Z,3.92
2023-02-27T09:54:55.185Z,4.07
2023-02-27T09:57:30.709Z,3.63
2023-02-27T10:00:00.983Z,3.88
2023-02-27T10:02:49.400Z,3.58
2023-02-27T10:05:44.478Z,3.67
2023-02-27T10:08:22.454Z,3.67
2023-02-27T10:11:00.987Z,3.45
2023-02-27T10:13:42.779Z,3.50
2023-02-27T10:16:12.082Z,2.97
2023-02-27T10:18:57.959Z,3.40
2023-02-27T10:21:37.335Z,3.65
2023-02-27T10:24:15.656Z,2.60
2023-02-27T10:26:44.029Z,3.08
2023-02-27T10:29:21.184Z,2.70
2023-02-27T10:31:52.260Z,2.53
2023-02-27T10:34:18.774Z,2.17
2023-02-27T10:36:46.678Z,2.10
2023-02-27T10:39:16.608Z,2.60
2023-02-27T10:41:44.387Z,2.30
2023-02-27T10:44:14.909Z,2.88
2023-02-27T10:46:41.398Z,2.75
2023-02-27T10:49:19.484Z,3.10
2023-02-27T10:51:47.261Z,2.58
2023-02-27T10:54:25.090Z,2.40
2023-02-27T10:56:54.800Z,3.20
2023-02-27T10:59:32.788Z,3.13
2023-02-27T11:02:00.867Z,3.03
2023-02-27T11:04:38.665Z,2.92
2023-02-27T11:07:10.382Z,2.80
2023-02-27T11:09:37.281Z,3.17
2023-02-27T11:12:31.941Z,2.70
2023-02-27T11:15:16.446Z,2.92
2023-02-27T11:17:43.531Z,2.63
2023-02-27T11:20:50.470Z,2.15
2023-02-27T11:23:24.878Z,1.75
2023-02-27T11:25:51.760Z,3.05
2023-02-27T11:28:23.305Z,3.30
2023-02-27T11:31:01.743Z,2.90
2023-02-27T11:33:29.920Z,3.17
2023-02-27T11:35:58.549Z,3.30
2023-02-27T11:38:27.762Z,3.22
2023-02-27T11:40:56.667Z,3.03
2023-02-27T11:43:29.818Z,3.05
2023-02-27T11:46:25.504Z,3.60
2023-02-27T11:49:13.786Z,3.22
2023-02-27T11:51:47.412Z,3.45
2023-02-27T11:54:35.865Z,3.28
2023-02-27T11:57:09.034Z,3.40
2023-02-27T11:59:43.396Z,2.70
2023-02-27T12:02:24.216Z,2.50
2023-02-27T12:05:01.673Z,2.20
2023-02-27T12:07:35.449Z,2.65
2023-02-27T12:10:16.050Z,2.47
2023-02-27T12:12:45.364Z,2.25
2023-02-27T12:15:20.890Z,2.15
2023-02-27T12:17:52.493Z,2.25
2023-02-27T12:20:25.985Z,1.93
2023-02-27T12:22:53.826Z,1.90
2023-02-27T12:25:33.525Z,2.10
2023-02-27T12:28:16.961Z,2.50
2023-02-27T12:30:49.867Z,2.10
2023-02-27T12:33:27.979Z,2.15
2023-02-27T12:35:59.286Z,1.90
2023-02-27T12:38:25.726Z,2.00
2023-02-27T12:41:27.523Z,2.25
2023-02-27T12:44:31.670Z,2.15
2023-02-27T12:47:37.160Z,2.45
2023-02-27T12:50:10.331Z,2.38
2023-02-27T12:52:42.611Z,2.10
2023-02-27T12:55:15.851Z,2.50
2023-02-27T12:58:01.125Z,2.08
2023-02-27T13:00:30.242Z,2.50
2023-02-27T13:03:13.052Z,2.28
2023-02-27T13:05:43.222Z,2.33
2023-02-27T13:08:52.194Z,2.30
2023-02-27T13:11:49.638Z,2.75
2023-02-27T13:14:42.181Z,2.22
2023-02-27T13:17:39.269Z,2.50
2023-02-27T13:20:18.992Z,2.47
2023-02-27T13:22:58.861Z,2.35
2023-02-27T13:25:25.657Z,2.40
2023-02-27T13:28:00.202Z,2.67
2023-02-27T13:30:35.242Z,3.15
2023-02-27T13:33:13.243Z,2.53
2023-02-27T13:35:56.069Z,2.80
2023-02-27T13:38:43.473Z,2.92
2023-02-27T13:41:24.887Z,2.92
2023-02-27T13:43:58.816Z,2.60
2023-02-27T13:46:35.295Z,2.60
2023-02-27T13:49:04.780Z,2.53
2023-02-27T13:51:44.623Z,2.63
2023-02-27T13:54:13.963Z,2.45
2023-02-27T13:56:57.460Z,2.15
2023-02-27T13:59:32.205Z,2.67
2023-02-27T14:02:01.249Z,2.40
2023-02-27T14:04:30.237Z,2.05
2023-02-27T14:07:06.344Z,2.20
2023-02-27T14:09:38.068Z,2.15
2023-02-27T14:12:06.736Z,2.60
2023-02-27T14:14:36.341Z,2.35
2023-02-27T14:17:03.620Z,2.40
2023-02-27T14:19:32.862Z,2.30
2023-02-27T14:22:03.791Z,2.22
2023-02-27T14:24:44.807Z,2.60
2023-02-27T14:27:21.044Z,2.38
2023-02-27T14:29:48.743Z,2.20
2023-02-27T14:32:25.145Z,2.58
2023-02-27T14:34:53.648Z,2.20
2023-02-27T14:37:24.261Z,2.22
2023-02-27T14:39:53.220Z,2.05
2023-02-27T14:42:36.835Z,2.22
2023-02-27T14:45:03.746Z,2.33
2023-02-27T14:47:35.431Z,2.35
2023-02-27T14:50:02.674Z,1.90
2023-02-27T14:52:30.592Z,2.50
2023-02-27T14:55:22.931Z,1.90
2023-02-27T14:58:06.962Z,2.30
2023-02-27T15:00:42.369Z,2.20
2023-02-27T15:03:29.352Z,2.00
2023-02-27T15:06:01.003Z,1.88
2023-02-27T15:08:38.325Z,2.00
2023-02-27T15:11:05.093Z,2.45
2023-02-27T15:13:33.645Z,2.17
2023-02-27T15:16:20.023Z,2.70
2023-02-27T15:18:51.525Z,2.50
2023-02-27T15:21:20.304Z,2.95
2023-02-27T15:23:58.552Z,2.83
2023-02-27T15:26:25.939Z,2.40
2023-02-27T15:28:52.720Z,1.90
2023-02-27T15:31:22.287Z,2.08
2023-02-27T15:33:50.019Z,1.75
2023-02-27T15:36:28.511Z,2.20
2023-02-27T15:39:16.477Z,2.10
2023-02-27T15:42:04.134Z,2.17
2023-02-27T15:44:36.022Z,1.85
2023-02-27T15:47:02.634Z,2.75
2023-02-27T15:49:29.017Z,2.47
2023-02-27T15:52:03.212Z,2.55
2023-02-27T15:54:34.178Z,2.25
2023-02-27T15:57:02.821Z,2.47
2023-02-27T15:59:30.353Z,2.42
2023-02-27T16:01:56.877Z,2.22
2023-02-27T16:04:25.396Z,2.20
2023-02-27T16:06:59.233Z,2.20
2023-02-27T16:09:33.162Z,2.50
2023-02-27T16:12:23.440Z,2.45
2023-02-27T16:14:53.522Z,2.55
2023-02-27T16:17:23.196Z,2.88
2023-02-27T16:19:49.677Z,2.88
2023-02-27T16:22:18.612Z,2.88
2023-02-27T16:24:45.475Z,2.50
2023-02-27T16:27:23.356Z,2.08
2023-02-27T16:29:51.265Z,2.20
2023-02-27T16:32:26.758Z,2.00
2023-02-27T16:35:15.809Z,2.40
2023-02-27T16:41:29.931Z,1.67
2023-02-27T16:43:56.413Z,1.70
2023-02-27T16:46:23.625Z,1.88
2023-02-27T16:49:00.660Z,1.63
2023-02-27T16:55:17.885Z,1.95
2023-02-27T16:57:44.272Z,3.35
2023-02-27T17:00:12.542Z,1.92
2023-02-27T17:02:38.897Z,1.70
2023-02-27T17:05:06.054Z,1.85
2023-02-27T17:07:32.493Z,1.67
2023-02-27T17:10:00.218Z,2.08
2023-02-27T17:12:26.753Z,2.10
2023-02-27T17:14:53.283Z,1.90
2023-02-27T17:17:19.686Z,2.00
2023-02-27T17:19:46.299Z,2.20
2023-02-27T17:22:12.661Z,2.53
2023-02-27T17:24:39.188Z,2.80
2023-02-27T17:27:05.595Z,4.25
2023-02-27T17:29:32.067Z,4.15
2023-02-27T17:31:58.575Z,3.30
2023-02-27T17:34:25.134Z,3.30
2023-02-27T17:36:51.539Z,2.58
2023-02-27T17:39:18.015Z,3.13
2023-02-27T17:41:44.961Z,2.40
2023-02-27T17:44:12.102Z,2.90
2023-02-27T17:46:39.318Z,2.88
2023-02-27T17:49:05.881Z,3.40
2023-02-27T17:51:32.540Z,3.25
2023-02-27T17:54:04.378Z,3.08
2023-02-27T17:56:31.274Z,3.17
2023-02-27T17:58:57.876Z,3.22
2023-02-27T18:01:25.817Z,3.05
2023-02-27T18:03:54.203Z,3.15
2023-02-27T18:06:21.619Z,2.92
2023-02-27T18:08:48.326Z,3.67
2023-02-27T18:11:18.261Z,3.45
2023-02-27T18:13:45.166Z,4.15
2023-02-27T18:16:11.863Z,5.60
2023-02-27T18:18:39.437Z,5.43
2023-02-27T18:21:09.741Z,5.90
2023-02-27T18:23:36.796Z,5.93
2023-02-27T18:26:04.233Z,6.72
2023-02-27T18:28:30.685Z,6.50
2023-02-27T18:30:57.189Z,6.63
2023-02-27T18:33:24.168Z,6.60
2023-02-27T18:35:50.678Z,6.07
2023-02-27T18:38:17.108Z,6.10
2023-02-27T18:40:43.653Z,5.70
2023-02-27T18:43:10.992Z,6.97
2023-02-27T18:45:37.813Z,8.30
2023-02-27T18:48:04.313Z,10.23
2023-02-27T18:50:30.813Z,11.85
2023-02-27T18:52:58.595Z,11.55
2023-02-27T18:55:25.106Z,11.23
2023-02-27T18:57:51.515Z,11.57
2023-02-27T19:00:19.050Z,12.27
2023-02-27T19:02:45.632Z,10.52
2023-02-27T19:05:14.453Z,9.73
2023-02-27T19:07:40.966Z,8.60
2023-02-27T19:10:08.406Z,7.10
2023-02-27T19:12:34.845Z,7.40
2023-02-27T19:15:47.831Z,6.13
2023-02-27T19:18:45.181Z,6.03
2023-02-27T19:21:12.907Z,9.02
2023-02-27T19:23:55.088Z,11.88
2023-02-27T19:33:56.135Z,4.95
2023-02-27T19:36:24.828Z,5.78
2023-02-27T19:38:52.465Z,5.38
2023-02-27T19:41:19.589Z,5.82
2023-02-27T19:43:46.454Z,5.65
2023-02-27T19:46:18.648Z,6.07
2023-02-27T19:48:45.452Z,5.47
2023-02-27T19:51:14.959Z,5.20
2023-02-27T19:53:42.522Z,4.88
2023-02-27T19:56:12.083Z,5.45
2023-02-27T19:58:39.242Z,4.65
2023-02-27T20:01:05.688Z,5.55
2023-02-27T20:03:32.741Z,23.17
2023-02-27T20:05:59.786Z,15.38
2023-02-27T20:08:26.184Z,10.25
2023-02-27T20:11:03.506Z,8.07
2023-02-27T20:13:34.328Z,7.10
2023-02-27T20:16:03.956Z,6.70
2023-02-27T20:18:31.424Z,5.45
2023-02-27T20:21:17.806Z,5.15
2023-02-27T20:23:46.122Z,4.60
2023-02-27T20:26:14.537Z,4.57
2023-02-27T20:28:43.629Z,4.22
2023-02-27T20:31:10.761Z,11.02
2023-02-27T20:33:37.343Z,10.38
2023-02-27T20:36:07.359Z,9.65
2023-02-27T20:38:34.129Z,6.13
2023-02-27T20:41:00.975Z,5.15
2023-02-27T20:43:30.442Z,5.38
2023-02-27T20:45:56.866Z,4.57
2023-02-27T20:48:23.297Z,4.47
2023-02-27T20:50:49.666Z,3.70
2023-02-27T20:53:16.051Z,3.97
2023-02-27T20:55:49.207Z,3.38
2023-02-27T20:58:16.300Z,4.07
2023-02-27T21:00:42.973Z,7.55
2023-02-27T21:03:09.899Z,7.38
2023-02-27T21:05:36.318Z,6.45
2023-02-27T21:08:02.737Z,5.70
2023-02-27T21:10:29.114Z,4.70
2023-02-27T21:12:55.486Z,4.32
2023-02-27T21:15:21.864Z,4.25
2023-02-27T21:17:48.257Z,3.83
2023-02-27T21:20:14.738Z,3.35
2023-02-27T21:22:41.132Z,3.75
2023-02-27T21:25:07.886Z,3.88
2023-02-27T21:27:34.267Z,3.40
2023-02-27T21:30:00.656Z,4.28
2023-02-27T21:32:27.097Z,5.00
2023-02-27T21:34:53.512Z,5.07
2023-02-27T21:37:19.923Z,5.82
2023-02-27T21:39:50.393Z,5.88
2023-02-27T21:42:16.797Z,7.00
2023-02-27T21:44:43.728Z,8.98
2023-02-27T21:47:10.301Z,11.55
2023-02-27T21:49:37.138Z,14.77
2023-02-27T21:52:03.582Z,14.63
2023-02-27T21:54:30.002Z,12.07
2023-02-27T21:56:58.800Z,10.70
2023-02-27T21:59:25.873Z,10.75
2023-02-27T22:01:52.395Z,8.85
2023-02-27T22:04:20.273Z,7.10
2023-02-27T22:06:48.111Z,5.78
2023-02-27T22:09:16.987Z,5.25
2023-02-27T22:11:43.624Z,4.95
2023-02-27T22:14:11.017Z,4.78
2023-02-27T22:16:37.563Z,4.65
2023-02-27T22:19:14.161Z,4.72
2023-02-27T22:21:40.766Z,3.97
2023-02-27T22:24:07.695Z,4.57
2023-02-27T22:26:34.283Z,4.90
2023-02-27T22:29:00.970Z,5.15
2023-02-27T22:31:30.391Z,5.03
2023-02-27T22:34:01.031Z,5.63
2023-02-27T22:36:31.762Z,5.50
2023-02-27T22:38:58.351Z,6.53
2023-02-27T22:41:30.829Z,6.13
2023-02-27T22:43:58.783Z,6.53
2023-02-27T22:46:28.253Z,5.78
2023-02-27T22:49:06.663Z,6.25
2023-02-27T22:51:33.190Z,5.82
2023-02-27T22:54:01.689Z,5.95
2023-02-27T22:56:28.591Z,6.15
2023-02-27T22:58:55.268Z,6.15
2023-02-27T23:01:24.497Z,6.50
2023-02-27T23:03:52.930Z,6.50
2023-02-27T23:06:21.723Z,6.75
2023-02-27T23:08:48.782Z,6.57
2023-02-27T23:11:16.169Z,6.47
2023-02-27T23:13:42.658Z,6.55
2023-02-27T23:16:13.487Z,6.88
2023-02-27T23:18:50.836Z,6.32
2023-02-27T23:21:19.412Z,6.35
2023-02-27T23:23:45.993Z,6.53
2023-02-27T23:26:12.765Z,6.55
2023-02-27T23:28:39.412Z,6.60
2023-02-27T23:31:07.010Z,7.53
2023-02-27T23:33:33.798Z,6.90
2023-02-27T23:36:01.433Z,6.88
2023-02-27T23:38:28.470Z,7.10
2023-02-27T23:40:54.916Z,6.80
2023-02-27T23:43:40.865Z,6.70
2023-02-27T23:46:09.067Z,7.03
2023-02-27T23:48:35.578Z,7.28
2023-02-27T23:51:03.321Z,6.80
2023-02-27T23:53:30.404Z,7.10
2023-02-27T23:55:56.865Z,7.00
2023-02-27T23:58:23.510Z,6.53
